Betancuria — EAMH — position and weather

sailwx.info

Track history (hours):
 
Tides and Currents Weather Stations Pressure Air Temp Water Temp Dewpoint Dewpoint Depression Visibility Wind Speed Wind Dir Waves Ship Positions

Betancuria

Last reported at 2016-Aug-26 02:33 UTC. Time now 2016-Aug-26 03:14 UTC.
Position N 36°06' W 005°23'.

Length 141 m; draft 4.7 m.

Type: Ship. MMSI: 224471000.

Date/timePositionNaut miles runAvg speedWind from/ knotsBaromVisibWave heightAir tempDewpointWater temp
2016-Aug-26 02:33N 36°06' W 005°23'8 8.1
2016-Aug-26 01:33N 35°58' W 005°25'1111.0
2016-Aug-26 00:32N 35°55' W 005°39'6 0.1
2016-Aug-23 21:33N 35°59' W 005°33'10 9.8
2016-Aug-23 20:33N 36°01' W 005°21'13311.1
2016-Aug-23 08:33N 36°34' W 002°41'1212.0
2016-Aug-23 07:32N 36°29' W 002°27'3511.0
2016-Aug-23 04:20N 36°43' W 001°47'4712.5
2016-Aug-23 00:33N 37°14' W 001°03'1611.7
2016-Aug-22 23:11N 37°25' W 000°48'1311.9
2016-Aug-22 22:07N 37°33' W 000°36'611.3
2016-Aug-22 21:33N 37°39' W 000°32'1111.3
2016-Aug-22 20:33N 37°50' W 000°29'1511.3
2016-Aug-22 19:12N 38°04' W 000°24'2 0.0
2016-Aug-21 06:17N 38°06' W 000°23'810.2
2016-Aug-21 05:33N 37°58' W 000°24'1310.7
2016-Aug-21 04:22N 37°46' W 000°26'810.3
2016-Aug-21 03:33N 37°38' W 000°28'1210.1
2016-Aug-21 02:19N 37°28' W 000°39'810.7
2016-Aug-21 01:34N 37°23' W 000°46'5711.1
2016-Aug-20 20:23N 36°45' W 001°40'1011.3
2016-Aug-20 19:31N 36°38' W 001°49'2311.3
2016-Aug-20 17:31N 36°23' W 002°10'1310.8
2016-Aug-20 16:19N 36°21' W 002°26'910.9
2016-Aug-20 15:29N 36°19' W 002°37'2811.7
2016-Aug-20 13:03N 36°15' W 003°12'9712.8
2016-Aug-20 05:29N 36°01' W 005°10'1313.8
2016-Aug-20 04:33N 35°58' W 005°26'1212.3
2016-Aug-20 03:33N 35°55' W 005°41'123 3.1
2016-Aug-18 12:24N 36°53' W 007°55'1112.4
2016-Aug-18 11:33N 36°53' W 008°08'1312.6
2016-Aug-18 10:33N 36°52' W 008°24'1312.7
2016-Aug-18 09:33N 36°50' W 008°40'1212.2
2016-Aug-18 08:33N 36°49' W 008°55'1410.9
2016-Aug-18 07:18N 36°55' W 009°10'1012.1
2016-Aug-18 06:29N 37°05' W 009°13'1112.2
2016-Aug-18 05:33N 37°16' W 009°14'1211.9
2016-Aug-18 04:32N 37°28' W 009°16'1111.7
2016-Aug-18 03:33N 37°40' W 009°17'1111.4
2016-Aug-18 02:33N 37°51' W 009°18'1211.9
2016-Aug-18 01:33N 38°03' W 009°19'1212.1
2016-Aug-18 00:33N 38°15' W 009°20'1212.2
2016-Aug-17 23:33N 38°27' W 009°22'1211.8
2016-Aug-17 22:33N 38°39' W 009°20'10 9.9
2016-Aug-17 21:33N 38°42' W 009°08'3 2.7
2016-Aug-17 20:32N 38°44' W 009°06'0 0.0
2016-Aug-17 19:32N 38°44' W 009°06'0 0.0
2016-Aug-17 18:26N 38°44' W 009°06'0 0.0
2016-Aug-17 17:32N 38°44' W 009°06'0 0.0
2016-Aug-17 16:29N 38°44' W 009°06'0 0.0
2016-Aug-17 13:32N 38°44' W 009°06'0 0.0
2016-Aug-17 12:32N 38°44' W 009°06'0 0.0
2016-Aug-17 11:32N 38°44' W 009°06'0 0.0
2016-Aug-17 10:20N 38°44' W 009°06'0 0.0
2016-Aug-17 09:32N 38°44' W 009°06'0 0.0
2016-Aug-17 08:23N 38°44' W 009°06'0 0.0
2016-Aug-17 07:29N 38°44' W 009°06'0 0.0
2016-Aug-17 06:08N 38°44' W 009°06'0 0.0
2016-Aug-17 05:32N 38°44' W 009°06'0 0.0
2016-Aug-17 03:20N 38°44' W 009°06'0 0.0
2016-Aug-17 02:26N 38°44' W 009°06'0 0.0
2016-Aug-17 01:17N 38°44' W 009°06'0 0.0
2016-Aug-17 00:29N 38°44' W 009°06'0 0.0
2016-Aug-16 22:29N 38°44' W 009°06'0 0.0
2016-Aug-16 21:20N 38°44' W 009°06'0 0.0
2016-Aug-16 20:32N 38°44' W 009°06'0 0.0
2016-Aug-16 19:32N 38°44' W 009°06'0 0.0
2016-Aug-16 18:32N 38°44' W 009°06'0 0.0
2016-Aug-16 17:32N 38°44' W 009°06'0 0.0
2016-Aug-16 16:32N 38°44' W 009°06'0 0.0
2016-Aug-16 15:32N 38°44' W 009°06'0 0.0
2016-Aug-16 14:29N 38°44' W 009°06'0 0.0
2016-Aug-16 13:32N 38°44' W 009°06'0 0.0
2016-Aug-16 12:05N 38°44' W 009°06'0 0.0
2016-Aug-16 11:29N 38°44' W 009°06'0 0.0
2016-Aug-16 10:23N 38°44' W 009°06'0 0.0
2016-Aug-16 08:29N 38°44' W 009°06'0 0.0
2016-Aug-16 07:29N 38°44' W 009°06'9 3.2
2016-Aug-16 04:33N 38°41' W 009°17'6 6.3
2016-Aug-16 03:33N 38°39' W 009°25'  
Track history (hours):
 
Tides and Currents Weather Stations Pressure Air Temp Water Temp Dewpoint Dewpoint Depression Visibility Wind Speed Wind Dir Waves Ship Positions

Betancuria

Last reported at 2016-Aug-26 02:33 UTC. Time now 2016-Aug-26 03:14 UTC.
Position N 36°06' W 005°23'.

Length 141 m; draft 4.7 m.

Type: Ship. MMSI: 224471000.

Date/timePositionNaut miles runAvg speedWind from/ knotsBaromVisibWave heightAir tempDewpointWater temp
2016-Aug-26 02:33N 36°06' W 005°23'8 8.1
2016-Aug-26 01:33N 35°58' W 005°25'1111.0
2016-Aug-26 00:32N 35°55' W 005°39'6 0.1
2016-Aug-23 21:33N 35°59' W 005°33'10 9.8
2016-Aug-23 20:33N 36°01' W 005°21'13311.1
2016-Aug-23 08:33N 36°34' W 002°41'1212.0
2016-Aug-23 07:32N 36°29' W 002°27'3511.0
2016-Aug-23 04:20N 36°43' W 001°47'4712.5
2016-Aug-23 00:33N 37°14' W 001°03'1611.7
2016-Aug-22 23:11N 37°25' W 000°48'1311.9
2016-Aug-22 22:07N 37°33' W 000°36'611.3
2016-Aug-22 21:33N 37°39' W 000°32'1111.3
2016-Aug-22 20:33N 37°50' W 000°29'1511.3
2016-Aug-22 19:12N 38°04' W 000°24'2 0.0
2016-Aug-21 06:17N 38°06' W 000°23'810.2
2016-Aug-21 05:33N 37°58' W 000°24'1310.7
2016-Aug-21 04:22N 37°46' W 000°26'810.3
2016-Aug-21 03:33N 37°38' W 000°28'1210.1
2016-Aug-21 02:19N 37°28' W 000°39'810.7
2016-Aug-21 01:34N 37°23' W 000°46'5711.1
2016-Aug-20 20:23N 36°45' W 001°40'1011.3
2016-Aug-20 19:31N 36°38' W 001°49'2311.3
2016-Aug-20 17:31N 36°23' W 002°10'1310.8
2016-Aug-20 16:19N 36°21' W 002°26'910.9
2016-Aug-20 15:29N 36°19' W 002°37'2811.7
2016-Aug-20 13:03N 36°15' W 003°12'9712.8
2016-Aug-20 05:29N 36°01' W 005°10'1313.8
2016-Aug-20 04:33N 35°58' W 005°26'1212.3
2016-Aug-20 03:33N 35°55' W 005°41'123 3.1
2016-Aug-18 12:24N 36°53' W 007°55'1112.4
2016-Aug-18 11:33N 36°53' W 008°08'1312.6
2016-Aug-18 10:33N 36°52' W 008°24'1312.7
2016-Aug-18 09:33N 36°50' W 008°40'1212.2
2016-Aug-18 08:33N 36°49' W 008°55'1410.9
2016-Aug-18 07:18N 36°55' W 009°10'1012.1
2016-Aug-18 06:29N 37°05' W 009°13'1112.2
2016-Aug-18 05:33N 37°16' W 009°14'1211.9
2016-Aug-18 04:32N 37°28' W 009°16'1111.7
2016-Aug-18 03:33N 37°40' W 009°17'1111.4
2016-Aug-18 02:33N 37°51' W 009°18'1211.9
2016-Aug-18 01:33N 38°03' W 009°19'1212.1
2016-Aug-18 00:33N 38°15' W 009°20'1212.2
2016-Aug-17 23:33N 38°27' W 009°22'1211.8
2016-Aug-17 22:33N 38°39' W 009°20'10 9.9
2016-Aug-17 21:33N 38°42' W 009°08'3 2.7
2016-Aug-17 20:32N 38°44' W 009°06'0 0.0
2016-Aug-17 19:32N 38°44' W 009°06'0 0.0
2016-Aug-17 18:26N 38°44' W 009°06'0 0.0
2016-Aug-17 17:32N 38°44' W 009°06'0 0.0
2016-Aug-17 16:29N 38°44' W 009°06'0 0.0
2016-Aug-17 13:32N 38°44' W 009°06'0 0.0
2016-Aug-17 12:32N 38°44' W 009°06'0 0.0
2016-Aug-17 11:32N 38°44' W 009°06'0 0.0
2016-Aug-17 10:20N 38°44' W 009°06'0 0.0
2016-Aug-17 09:32N 38°44' W 009°06'0 0.0
2016-Aug-17 08:23N 38°44' W 009°06'0 0.0
2016-Aug-17 07:29N 38°44' W 009°06'0 0.0
2016-Aug-17 06:08N 38°44' W 009°06'0 0.0
2016-Aug-17 05:32N 38°44' W 009°06'0 0.0
2016-Aug-17 03:20N 38°44' W 009°06'0 0.0
2016-Aug-17 02:26N 38°44' W 009°06'0 0.0
2016-Aug-17 01:17N 38°44' W 009°06'0 0.0
2016-Aug-17 00:29N 38°44' W 009°06'0 0.0
2016-Aug-16 22:29N 38°44' W 009°06'0 0.0
2016-Aug-16 21:20N 38°44' W 009°06'0 0.0
2016-Aug-16 20:32N 38°44' W 009°06'0 0.0
2016-Aug-16 19:32N 38°44' W 009°06'0 0.0
2016-Aug-16 18:32N 38°44' W 009°06'0 0.0
2016-Aug-16 17:32N 38°44' W 009°06'0 0.0
2016-Aug-16 16:32N 38°44' W 009°06'0 0.0
2016-Aug-16 15:32N 38°44' W 009°06'0 0.0
2016-Aug-16 14:29N 38°44' W 009°06'0 0.0
2016-Aug-16 13:32N 38°44' W 009°06'0 0.0
2016-Aug-16 12:05N 38°44' W 009°06'0 0.0
2016-Aug-16 11:29N 38°44' W 009°06'0 0.0
2016-Aug-16 10:23N 38°44' W 009°06'0 0.0
2016-Aug-16 08:29N 38°44' W 009°06'0 0.0
2016-Aug-16 07:29N 38°44' W 009°06'9 3.2
2016-Aug-16 04:33N 38°41' W 009°17'6 6.3
2016-Aug-16 03:33N 38°39' W 009°25'  

Dump ship's entire track history